Aeroporto :
LOGIN :

Iscrizione | Disclaimer

   EN    FR    IT 

 










Sommario :    VFR   VFR Marginale   IFR   IFR Intensivo   IFR Molto Intensivo
Visibilità : 
Base nubi : 
>= 8 km
>= 3000ft
5 / 8 km
1000 / 3000 ft
1500m / 5 km
500 / 1000 ft
800 / 1500m
200 / 500 ft
< 800m
< 200 ft
Simboli :   Temporali  Nebbia  Neve Forte  Precipitazioni Forti  Vento > 20 kt
SIGMETs :   Varie  Temporali  Ghiacco  Turbolenza  Onda orograficha  Ceneri Vulcaniche






- Altitudine del aeroporto : 656 ft
- Codice IATA : CMN


GMMN - Casablanca Mohammed V

ULTIMO METAR :
  • 300200Z VRB02KT CAVOK 11/11 Q1021 NOSIG

METARs OBSOLETI :
  • 300130Z VRB02KT CAVOK 13/13 Q1021 NOSIG
  • 300100Z 20003KT CAVOK 13/13 Q1021 NOSIG
  • 300030Z 20003KT CAVOK 13/13 Q1021 NOSIG
  • 300000Z 23003KT CAVOK 13/13 Q1021 NOSIG
  • 292330Z 23003KT CAVOK 13/13 Q1021 NOSIG

TAF TAF GMMN
Valido dal 30 a 00 ore il 31 a 06 ore UTC


292300Z 3000/3106 20004KT CAVOK
PROB30
TEMPO 3002/3006 3000 BR SCT006
BECMG 3011/3013 34010KT
BECMG 3019/3021 12004KT



MetMap, La meteo Aeronautica in un colpo d'occhio ! - Copyright ORBIFLY Dicembre 2007 - Disclaimer

ORBIFLY MET'MAP TEAM :

Programmazione e sviluppo : Alexandra Zaïnal
Concezione : Baudouin d'Aumeries
Aiuto per la programmazione : Marc-Olivier Méhu
Supporto tecnico e logistico : Manuel Goepfert
Aiuto per la traduzione : Arnaldo La Scala

Contatto : metmap@orbifly.com




FONTI E CREDITI :

   NOAA